createdAt,value
2022-10-13T00:01:23.392Z,67.72
2022-10-13T00:04:10.371Z,67.83
2022-10-13T00:06:57.395Z,68.23
2022-10-13T00:09:44.398Z,68.19
2022-10-13T00:12:24.925Z,68.26
2022-10-13T00:15:11.408Z,68.37
2022-10-13T00:17:59.368Z,68.09
2022-10-13T00:20:39.451Z,68.55
2022-10-13T00:23:26.458Z,68.25
2022-10-13T00:26:10.474Z,68.59
2022-10-13T00:28:57.397Z,68.58
2022-10-13T00:31:45.348Z,68.70
2022-10-13T00:34:25.714Z,68.65
2022-10-13T00:37:12.334Z,68.50
2022-10-13T00:39:59.338Z,68.81
2022-10-13T00:42:46.381Z,68.79
2022-10-13T00:45:36.337Z,68.98
2022-10-13T00:48:23.346Z,69.08
2022-10-13T00:51:11.329Z,69.31
2022-10-13T00:53:53.485Z,69.67
2022-10-13T00:56:43.372Z,69.37
2022-10-13T00:59:41.313Z,69.70
2022-10-13T01:02:30.332Z,69.49
2022-10-13T01:05:14.422Z,69.78
2022-10-13T01:08:02.320Z,69.56
2022-10-13T01:11:10.329Z,69.86
2022-10-13T01:13:59.873Z,70.02
2022-10-13T01:17:05.295Z,70.29
2022-10-13T01:19:56.760Z,70.43
2022-10-13T01:23:10.307Z,70.36
2022-10-13T01:26:36.256Z,69.98
2022-10-13T01:29:20.424Z,70.19
2022-10-13T01:32:39.297Z,70.17
2022-10-13T01:35:50.469Z,70.00
2022-10-13T01:38:55.287Z,70.21
2022-10-13T01:41:57.392Z,70.07
2022-10-13T01:44:50.260Z,70.16
2022-10-13T01:47:32.422Z,70.37
2022-10-13T01:50:23.282Z,70.43
2022-10-13T01:53:08.401Z,70.53
2022-10-13T01:56:01.250Z,70.86
2022-10-13T01:58:44.375Z,71.09
2022-10-13T02:02:11.234Z,71.36
2022-10-13T02:04:59.272Z,71.08
2022-10-13T02:07:57.857Z,71.54
2022-10-13T02:10:54.196Z,71.69
2022-10-13T02:13:36.937Z,71.65
2022-10-13T02:16:24.212Z,72.17
2022-10-13T02:19:07.050Z,72.12
2022-10-13T02:21:55.249Z,72.42
2022-10-13T02:24:36.001Z,72.33
2022-10-13T02:27:16.219Z,72.51
2022-10-13T02:30:04.319Z,72.46
2022-10-13T02:32:44.216Z,72.83
2022-10-13T02:35:31.210Z,72.84
2022-10-13T02:38:19.220Z,72.85
2022-10-13T02:41:02.105Z,72.83
2022-10-13T02:43:49.195Z,72.72
2022-10-13T02:46:39.213Z,73.35
2022-10-13T02:49:19.332Z,73.40
2022-10-13T02:52:06.197Z,73.40
2022-10-13T02:54:48.297Z,73.63
2022-10-13T02:57:35.165Z,74.17
2022-10-13T03:00:21.293Z,74.47
2022-10-13T03:03:08.146Z,74.33
2022-10-13T03:25:54.484Z,78.18
2022-10-13T03:28:41.561Z,77.15
2022-10-13T03:31:21.571Z,76.62
2022-10-13T03:34:19.497Z,75.88
2022-10-13T03:37:08.468Z,75.17
2022-10-13T03:39:56.448Z,75.16
2022-10-13T03:42:43.490Z,74.53
2022-10-13T03:45:23.890Z,74.33
2022-10-13T03:48:03.506Z,74.27
2022-10-13T03:50:51.440Z,73.95
2022-10-13T03:53:32.199Z,73.74
2022-10-13T03:56:19.480Z,73.83
2022-10-13T03:59:01.151Z,73.21
2022-10-13T04:01:47.540Z,72.67
2022-10-13T04:04:27.851Z,72.59
2022-10-13T04:07:14.477Z,72.13
2022-10-13T04:09:54.813Z,72.20
2022-10-13T04:12:41.465Z,72.34
2022-10-13T04:15:21.841Z,72.45
2022-10-13T04:18:08.422Z,72.31
2022-10-13T04:20:48.843Z,72.56
2022-10-13T04:23:35.456Z,73.08
2022-10-13T04:26:22.009Z,73.51
2022-10-13T04:29:09.440Z,73.35
2022-10-13T04:31:50.324Z,74.00
2022-10-13T04:34:37.422Z,73.74
2022-10-13T04:37:17.808Z,74.48
2022-10-13T04:40:04.451Z,74.97
2022-10-13T04:42:44.943Z,74.42
2022-10-13T04:45:31.426Z,74.45
2022-10-13T04:48:18.507Z,74.00
2022-10-13T04:51:06.414Z,73.96
2022-10-13T04:53:53.379Z,73.71
2022-10-13T04:56:34.380Z,73.17
2022-10-13T04:59:21.410Z,73.37
2022-10-13T05:02:03.321Z,72.87
2022-10-13T05:04:50.389Z,72.89
2022-10-13T05:07:38.401Z,72.40
2022-10-13T05:10:18.510Z,72.18
2022-10-13T05:13:05.409Z,71.71
2022-10-13T05:15:46.464Z,71.23
2022-10-13T05:18:35.352Z,71.20
2022-10-13T05:21:52.371Z,70.95
2022-10-13T05:24:47.436Z,71.41
2022-10-13T05:27:27.733Z,72.16
2022-10-13T05:30:18.357Z,71.39
2022-10-13T05:32:58.849Z,71.54
2022-10-13T05:35:45.322Z,70.61
2022-10-13T05:38:26.254Z,70.13
2022-10-13T05:41:21.372Z,69.42
2022-10-13T05:44:11.353Z,68.21
2022-10-13T05:47:07.765Z,66.56
2022-10-13T05:49:47.685Z,58.75
2022-10-13T05:52:37.368Z,55.54
2022-10-13T05:55:19.164Z,50.16
2022-10-13T05:58:06.289Z,46.61
2022-10-13T06:00:47.151Z,47.32
2022-10-13T06:03:37.289Z,42.49
2022-10-13T06:06:26.824Z,41.17
2022-10-13T06:09:10.394Z,40.02
2022-10-13T06:11:57.311Z,36.35
2022-10-13T06:14:37.453Z,34.87
2022-10-13T06:17:24.312Z,33.23
2022-10-13T06:20:06.173Z,35.33
2022-10-13T06:22:53.285Z,31.43
2022-10-13T06:25:47.285Z,32.23
2022-10-13T06:28:27.892Z,32.38
2022-10-13T06:31:14.288Z,30.57
2022-10-13T06:34:01.314Z,29.64
2022-10-13T06:36:42.236Z,28.65
2022-10-13T06:39:29.280Z,30.22
2022-10-13T06:42:17.569Z,30.10
2022-10-13T06:45:14.547Z,29.18
2022-10-13T06:48:01.289Z,32.77
2022-10-13T06:50:43.026Z,32.28
2022-10-13T06:53:30.262Z,32.45
2022-10-13T06:56:10.992Z,33.76
2022-10-13T06:58:57.287Z,35.29
2022-10-13T07:01:46.278Z,34.28
2022-10-13T07:04:35.279Z,36.17
2022-10-13T07:07:29.258Z,35.36
2022-10-13T07:10:16.348Z,36.16
2022-10-13T07:12:56.265Z,36.06
2022-10-13T07:15:46.266Z,33.53
2022-10-13T07:18:26.342Z,35.16
2022-10-13T07:21:13.218Z,32.29
2022-10-13T07:24:00.232Z,31.71
2022-10-13T07:26:40.647Z,29.89
2022-10-13T07:29:27.239Z,29.43
2022-10-13T07:32:14.222Z,28.30
2022-10-13T07:35:01.246Z,29.19
2022-10-13T07:37:41.620Z,30.23
2022-10-13T07:40:28.255Z,26.81
2022-10-13T07:43:15.236Z,23.99
2022-10-13T07:46:02.212Z,26.04
2022-10-13T07:48:49.233Z,27.78
2022-10-13T07:51:30.305Z,26.48
2022-10-13T07:54:17.184Z,27.58
2022-10-13T07:57:08.236Z,27.30
2022-10-13T07:59:55.200Z,28.82
2022-10-13T08:02:45.350Z,28.13
2022-10-13T08:05:32.184Z,27.26
2022-10-13T08:08:19.165Z,28.52
2022-10-13T08:11:05.009Z,26.37
2022-10-13T08:13:52.185Z,27.74
2022-10-13T08:16:39.198Z,28.81
2022-10-13T08:19:22.154Z,26.35
2022-10-13T08:22:09.843Z,27.46
2022-10-13T08:24:56.258Z,25.49
2022-10-13T08:27:50.747Z,24.27
2022-10-13T08:30:32.293Z,24.15
2022-10-13T08:33:19.161Z,25.37
2022-10-13T08:36:06.167Z,24.28
2022-10-13T08:38:46.298Z,25.12
2022-10-13T08:41:45.207Z,23.34
2022-10-13T08:45:16.082Z,24.76
2022-10-13T08:48:19.182Z,23.98
2022-10-13T08:51:07.570Z,25.69
2022-10-13T08:53:57.141Z,25.78
2022-10-13T08:56:37.528Z,25.51
2022-10-13T08:59:28.165Z,24.67
2022-10-13T09:02:22.688Z,24.11
2022-10-13T09:05:11.134Z,24.10
2022-10-13T09:07:57.461Z,24.15
2022-10-13T09:10:44.084Z,25.46
2022-10-13T09:13:28.506Z,26.13
2022-10-13T09:16:15.133Z,28.18
2022-10-13T09:19:02.131Z,27.85
2022-10-13T09:21:49.086Z,29.12
2022-10-13T09:24:36.079Z,30.13
2022-10-13T09:27:22.225Z,30.77
2022-10-13T09:30:32.113Z,31.00
2022-10-13T09:33:22.108Z,29.17
2022-10-13T09:36:09.108Z,29.04
2022-10-13T09:39:29.085Z,32.31
2022-10-13T09:42:32.084Z,34.80
2022-10-13T09:45:27.286Z,34.47
2022-10-13T09:48:23.106Z,35.16
2022-10-13T09:51:11.092Z,36.27
2022-10-13T09:53:51.661Z,36.30
2022-10-13T09:57:00.090Z,33.60
2022-10-13T09:59:46.135Z,32.83
2022-10-13T10:02:44.099Z,34.07
2022-10-13T10:05:57.389Z,35.82
2022-10-13T10:09:04.608Z,35.36
2022-10-13T10:11:47.827Z,35.14
2022-10-13T10:14:43.040Z,36.66
2022-10-13T10:17:59.067Z,37.70
2022-10-13T10:20:54.227Z,37.00
2022-10-13T10:23:44.068Z,36.75
2022-10-13T10:26:48.087Z,36.22
2022-10-13T10:29:50.011Z,38.47
2022-10-13T10:32:51.052Z,38.12
2022-10-13T10:36:03.997Z,39.10
2022-10-13T10:38:59.074Z,41.36
2022-10-13T10:42:26.046Z,42.00
2022-10-13T10:45:18.055Z,42.10
2022-10-13T10:48:03.074Z,40.52
2022-10-13T10:50:50.066Z,40.63
2022-10-13T10:53:48.570Z,39.06
2022-10-13T10:57:01.025Z,39.85
2022-10-13T10:59:44.240Z,40.66
2022-10-13T11:03:14.041Z,39.66
2022-10-13T11:06:04.090Z,39.22
2022-10-13T11:09:01.996Z,38.95
2022-10-13T11:11:43.142Z,38.09
2022-10-13T11:14:43.999Z,38.48
2022-10-13T11:17:36.031Z,39.22
2022-10-13T11:20:28.144Z,38.85
2022-10-13T11:23:15.007Z,40.28
2022-10-13T11:26:27.071Z,40.83
2022-10-13T11:29:08.400Z,41.19
2022-10-13T11:31:54.694Z,42.07
2022-10-13T11:34:44.979Z,42.27
2022-10-13T11:37:55.693Z,42.61
2022-10-13T11:40:56.941Z,40.38
2022-10-13T11:44:06.000Z,41.31
2022-10-13T11:47:09.127Z,43.09
2022-10-13T11:50:13.954Z,45.04
2022-10-13T11:53:37.978Z,45.79
2022-10-13T11:56:48.520Z,47.11
2022-10-13T11:59:38.950Z,47.75
2022-10-13T12:02:19.561Z,47.54
2022-10-13T12:05:31.088Z,48.59
2022-10-13T12:08:11.069Z,49.40
2022-10-13T12:11:03.955Z,48.54
2022-10-13T12:13:44.038Z,49.59
2022-10-13T12:16:30.936Z,48.45
2022-10-13T12:19:28.039Z,48.79
2022-10-13T12:22:18.935Z,49.41
2022-10-13T12:25:17.957Z,49.56
2022-10-13T12:28:03.419Z,49.01
2022-10-13T12:30:49.895Z,49.28
2022-10-13T12:33:41.888Z,50.51
2022-10-13T12:36:34.885Z,50.79
2022-10-13T12:39:22.902Z,49.95
2022-10-13T12:42:11.952Z,50.13
2022-10-13T12:44:52.533Z,52.08
2022-10-13T12:47:58.937Z,52.22
2022-10-13T12:50:45.911Z,52.43
2022-10-13T12:53:34.991Z,53.20
2022-10-13T12:56:37.923Z,51.79
2022-10-13T12:59:26.974Z,52.04
2022-10-13T13:02:30.885Z,50.23
2022-10-13T13:05:50.806Z,51.45
2022-10-13T13:08:40.004Z,51.84
2022-10-13T13:11:43.154Z,51.72
2022-10-13T13:14:38.885Z,51.51
2022-10-13T13:17:57.679Z,52.72
2022-10-13T13:20:33.918Z,50.99
2022-10-13T13:23:30.770Z,50.70
2022-10-13T13:26:32.197Z,50.20
2022-10-13T13:29:12.264Z,50.12
2022-10-13T13:31:58.828Z,49.34
2022-10-13T13:34:45.876Z,50.24
2022-10-13T13:37:48.049Z,50.66
2022-10-13T13:40:34.881Z,50.36
2022-10-13T13:43:25.868Z,50.24
2022-10-13T13:46:07.998Z,50.69
2022-10-13T13:48:54.839Z,50.77
2022-10-13T13:51:41.795Z,52.07
2022-10-13T13:54:21.965Z,52.15
2022-10-13T13:57:08.819Z,51.83
2022-10-13T13:59:56.825Z,51.65
2022-10-13T14:02:46.197Z,51.90
2022-10-13T14:05:32.827Z,51.68
2022-10-13T14:08:13.222Z,51.63
2022-10-13T14:10:59.784Z,52.07
2022-10-13T14:13:46.822Z,52.28
2022-10-13T14:16:40.806Z,52.72
2022-10-13T14:19:27.805Z,53.17
2022-10-13T14:22:09.583Z,53.56
2022-10-13T14:24:56.773Z,53.34
2022-10-13T14:27:45.880Z,53.60
2022-10-13T14:30:25.766Z,53.32
2022-10-13T14:33:12.815Z,54.11
2022-10-13T14:35:52.878Z,54.52
2022-10-13T14:38:40.811Z,55.03
2022-10-13T14:41:21.086Z,55.45
2022-10-13T14:44:07.755Z,55.68
2022-10-13T14:46:58.753Z,55.41
2022-10-13T14:49:45.782Z,55.51
2022-10-13T14:52:25.863Z,55.52
2022-10-13T14:55:12.765Z,56.33
2022-10-13T14:57:59.756Z,56.72
2022-10-13T15:00:43.043Z,57.28
2022-10-13T15:03:29.764Z,57.19
2022-10-13T15:06:24.742Z,58.21
2022-10-13T15:09:04.887Z,58.32
2022-10-13T15:27:31.907Z,61.37
2022-10-13T15:30:19.051Z,61.18
2022-10-13T15:32:59.894Z,61.30
2022-10-13T15:35:40.284Z,61.08
2022-10-13T15:38:26.899Z,60.71
2022-10-13T15:41:07.969Z,60.83
2022-10-13T15:43:54.930Z,60.57
2022-10-13T15:46:35.284Z,60.78
2022-10-13T15:49:21.860Z,61.10
2022-10-13T15:52:02.344Z,61.20
2022-10-13T15:54:48.813Z,61.04
2022-10-13T15:57:37.860Z,61.06
2022-10-13T16:00:19.933Z,60.86
2022-10-13T16:03:06.847Z,61.34
2022-10-13T16:05:48.918Z,60.96
2022-10-13T16:08:35.830Z,60.99
2022-10-13T16:11:28.827Z,61.27
2022-10-13T16:14:15.774Z,61.00
2022-10-13T16:17:02.847Z,60.88
2022-10-13T16:19:49.825Z,60.28
2022-10-13T16:22:29.913Z,60.54
2022-10-13T16:25:17.802Z,60.06
2022-10-13T16:28:05.833Z,60.25
2022-10-13T16:30:46.210Z,60.38
2022-10-13T16:33:32.791Z,60.21
2022-10-13T16:36:22.791Z,60.82
2022-10-13T16:39:02.914Z,60.85
2022-10-13T16:41:51.775Z,60.65
2022-10-13T16:44:31.915Z,60.62
2022-10-13T16:47:19.021Z,60.42
2022-10-13T16:49:58.882Z,60.76
2022-10-13T16:52:45.790Z,61.06
2022-10-13T16:55:32.795Z,60.96
2022-10-13T16:58:19.805Z,61.29
2022-10-13T17:01:06.803Z,61.39
2022-10-13T17:03:56.768Z,61.36
2022-10-13T17:06:39.414Z,61.78
2022-10-13T17:09:25.753Z,62.46
2022-10-13T17:12:05.840Z,62.70
2022-10-13T17:14:54.760Z,62.98
2022-10-13T17:17:35.079Z,63.37
2022-10-13T17:20:22.766Z,63.98
2022-10-13T17:23:02.898Z,63.98
2022-10-13T17:25:49.730Z,64.24
2022-10-13T17:28:30.888Z,64.52
2022-10-13T17:31:22.740Z,64.73
2022-10-13T17:34:09.745Z,65.08
2022-10-13T17:36:56.722Z,65.52
2022-10-13T17:39:36.814Z,65.25
2022-10-13T17:42:23.726Z,65.75
2022-10-13T17:45:10.688Z,65.66
2022-10-13T17:47:51.674Z,66.23
2022-10-13T17:50:38.722Z,66.33
2022-10-13T17:53:25.703Z,66.70
2022-10-13T17:56:06.812Z,66.87
2022-10-13T17:58:54.685Z,67.13
2022-10-13T18:01:48.765Z,67.32
2022-10-13T18:04:29.921Z,67.78
2022-10-13T18:07:16.690Z,67.96
2022-10-13T18:10:03.683Z,68.04
2022-10-13T18:12:44.271Z,67.84
2022-10-13T18:15:30.673Z,68.42
2022-10-13T18:18:19.725Z,68.34
2022-10-13T18:21:07.607Z,68.92
2022-10-13T18:23:57.644Z,68.98
2022-10-13T18:26:44.672Z,69.18
2022-10-13T18:29:24.754Z,69.46
2022-10-13T18:32:11.670Z,69.84
2022-10-13T18:34:51.756Z,70.22
2022-10-13T18:37:38.657Z,70.51
2022-10-13T18:40:25.637Z,71.13
2022-10-13T18:43:06.004Z,71.27
2022-10-13T18:45:52.642Z,71.53
2022-10-13T18:48:33.441Z,72.06
2022-10-13T18:51:23.659Z,72.29
2022-10-13T18:54:05.303Z,72.45
2022-10-13T18:56:51.608Z,72.61
2022-10-13T18:59:32.102Z,72.97
2022-10-13T19:02:18.734Z,73.19
2022-10-13T19:05:05.640Z,73.47
2022-10-13T19:07:45.690Z,73.70
2022-10-13T19:10:32.586Z,73.75
2022-10-13T19:13:12.756Z,73.72
2022-10-13T19:16:10.664Z,74.09
2022-10-13T19:18:57.619Z,74.25
2022-10-13T19:21:47.742Z,74.48
2022-10-13T19:24:32.689Z,74.81
2022-10-13T19:27:26.595Z,74.87
2022-10-13T19:30:09.283Z,75.02
2022-10-13T19:32:58.614Z,74.91
2022-10-13T19:35:45.959Z,75.46
2022-10-13T19:38:32.579Z,75.77
2022-10-13T19:41:15.081Z,75.49
2022-10-13T19:44:03.561Z,75.86
2022-10-13T19:47:01.567Z,75.83
2022-10-13T19:49:47.723Z,76.26
2022-10-13T19:52:36.893Z,76.20
2022-10-13T19:55:16.714Z,76.28
2022-10-13T19:58:14.562Z,76.54
2022-10-13T20:00:54.787Z,76.69
2022-10-13T20:03:44.708Z,76.50
2022-10-13T20:06:32.531Z,76.41
2022-10-13T20:09:16.657Z,76.26
2022-10-13T20:12:04.655Z,76.30
2022-10-13T20:14:46.992Z,76.77
2022-10-13T20:17:33.533Z,76.88
2022-10-13T20:20:23.598Z,76.75
2022-10-13T20:23:11.496Z,76.00
2022-10-13T20:25:59.873Z,76.13
2022-10-13T20:28:50.581Z,76.58
2022-10-13T20:31:37.547Z,76.35
2022-10-13T20:34:24.498Z,76.38
2022-10-13T20:37:04.892Z,76.41
2022-10-13T20:39:51.472Z,76.25
2022-10-13T20:42:38.518Z,76.13
2022-10-13T20:45:18.639Z,76.22
2022-10-13T20:48:05.483Z,76.15
2022-10-13T20:50:45.620Z,76.02
2022-10-13T20:53:32.488Z,76.05
2022-10-13T20:56:13.576Z,75.83
2022-10-13T20:59:00.485Z,75.65
2022-10-13T21:01:40.641Z,76.00
2022-10-13T21:04:27.496Z,75.73
2022-10-13T21:07:07.562Z,75.78
2022-10-13T21:09:55.450Z,75.64
2022-10-13T21:12:42.459Z,75.47
2022-10-13T21:15:24.870Z,75.81
2022-10-13T21:18:11.464Z,75.72
2022-10-13T21:20:58.453Z,76.10
2022-10-13T21:23:38.719Z,76.05
2022-10-13T21:26:29.460Z,76.38
2022-10-13T21:29:12.646Z,76.07
2022-10-13T21:31:59.461Z,76.47
2022-10-13T21:34:39.590Z,76.58
2022-10-13T21:37:26.438Z,76.59
2022-10-13T21:40:07.507Z,76.61
2022-10-13T21:42:54.434Z,76.86
2022-10-13T21:45:34.502Z,77.09
2022-10-13T21:48:21.502Z,77.30
2022-10-13T21:51:01.496Z,77.27
2022-10-13T21:53:48.401Z,77.38
2022-10-13T21:56:36.416Z,77.51
2022-10-13T21:59:16.758Z,77.94
2022-10-13T22:02:03.443Z,78.70
2022-10-13T22:04:43.753Z,78.13
2022-10-13T22:07:30.419Z,78.78
2022-10-13T22:10:10.857Z,78.96
2022-10-13T22:12:57.409Z,78.87
2022-10-13T22:15:37.867Z,78.25
2022-10-13T22:18:28.410Z,78.25
2022-10-13T22:21:15.769Z,79.11
2022-10-13T22:24:02.364Z,79.60
2022-10-13T22:26:57.548Z,79.09
2022-10-13T22:29:37.763Z,80.01
2022-10-13T22:32:24.365Z,80.74
2022-10-13T22:35:05.307Z,80.50
2022-10-13T22:37:52.395Z,80.43
2022-10-13T22:40:32.810Z,80.63
2022-10-13T22:43:19.354Z,80.74
2022-10-13T22:46:03.350Z,80.12
2022-10-13T22:48:50.350Z,79.96
2022-10-13T22:51:32.589Z,80.31
2022-10-13T22:54:19.382Z,80.28
2022-10-13T22:56:59.730Z,79.90
2022-10-13T22:59:46.344Z,80.35
2022-10-13T23:02:33.371Z,80.53
2022-10-13T23:05:13.476Z,80.97
2022-10-13T23:08:00.357Z,81.40
2022-10-13T23:10:40.436Z,81.93
2022-10-13T23:13:27.310Z,82.20
2022-10-13T23:16:16.300Z,82.75
2022-10-13T23:19:03.357Z,82.65
2022-10-13T23:21:43.410Z,82.66
2022-10-13T23:24:30.307Z,82.98
2022-10-13T23:27:24.334Z,82.86
2022-10-13T23:30:05.846Z,83.45
2022-10-13T23:32:52.304Z,84.05
2022-10-13T23:35:32.654Z,83.15
2022-10-13T23:38:19.318Z,82.76
2022-10-13T23:41:08.606Z,82.21
2022-10-13T23:43:56.260Z,82.73
2022-10-13T23:46:43.290Z,83.39
2022-10-13T23:49:24.446Z,83.01
2022-10-13T23:52:11.304Z,83.43
2022-10-13T23:54:51.421Z,83.54
2022-10-13T23:57:40.289Z,83.10
